sensor_id;sensor_type;location;lat;lon;timestamp;P1;durP1;ratioP1;P2;durP2;ratioP2
51124;SDS011;37163;55.556;39.108;2023-02-15T00:02:11;2.55;;;0.47;;
51124;SDS011;37163;55.556;39.108;2023-02-15T00:04:38;0.88;;;0.55;;
51124;SDS011;37163;55.556;39.108;2023-02-15T00:07:15;1.85;;;0.50;;
51124;SDS011;37163;55.556;39.108;2023-02-15T00:09:44;2.10;;;0.60;;
51124;SDS011;37163;55.556;39.108;2023-02-15T00:12:13;1.58;;;0.70;;
51124;SDS011;37163;55.556;39.108;2023-02-15T00:14:42;1.73;;;0.70;;
51124;SDS011;37163;55.556;39.108;2023-02-15T00:17:17;3.40;;;0.50;;
51124;SDS011;37163;55.556;39.108;2023-02-15T00:19:47;1.65;;;0.30;;
51124;SDS011;37163;55.556;39.108;2023-02-15T00:22:14;0.80;;;0.43;;
51124;SDS011;37163;55.556;39.108;2023-02-15T00:24:42;0.60;;;0.40;;
51124;SDS011;37163;55.556;39.108;2023-02-15T00:27:10;1.55;;;0.63;;
51124;SDS011;37163;55.556;39.108;2023-02-15T00:29:39;0.98;;;0.40;;
51124;SDS011;37163;55.556;39.108;2023-02-15T00:32:08;0.47;;;0.40;;
51124;SDS011;37163;55.556;39.108;2023-02-15T00:34:35;3.50;;;0.65;;
51124;SDS011;37163;55.556;39.108;2023-02-15T00:37:03;2.38;;;0.73;;
51124;SDS011;37163;55.556;39.108;2023-02-15T00:39:30;1.60;;;0.68;;
51124;SDS011;37163;55.556;39.108;2023-02-15T00:41:58;2.10;;;0.63;;
51124;SDS011;37163;55.556;39.108;2023-02-15T00:44:26;0.75;;;0.40;;
51124;SDS011;37163;55.556;39.108;2023-02-15T00:46:56;3.30;;;0.60;;
51124;SDS011;37163;55.556;39.108;2023-02-15T00:49:24;2.35;;;0.80;;
51124;SDS011;37163;55.556;39.108;2023-02-15T00:51:50;0.77;;;0.45;;
51124;SDS011;37163;55.556;39.108;2023-02-15T00:54:18;1.08;;;0.57;;
51124;SDS011;37163;55.556;39.108;2023-02-15T00:56:44;1.85;;;0.50;;
51124;SDS011;37163;55.556;39.108;2023-02-15T00:59:10;2.40;;;1.27;;
51124;SDS011;37163;55.556;39.108;2023-02-15T01:01:37;2.17;;;0.77;;
51124;SDS011;37163;55.556;39.108;2023-02-15T01:04:03;1.55;;;0.65;;
51124;SDS011;37163;55.556;39.108;2023-02-15T01:06:32;2.00;;;0.80;;
51124;SDS011;37163;55.556;39.108;2023-02-15T01:08:58;2.90;;;0.88;;
51124;SDS011;37163;55.556;39.108;2023-02-15T01:11:26;1.90;;;0.73;;
51124;SDS011;37163;55.556;39.108;2023-02-15T01:13:56;1.65;;;0.60;;
51124;SDS011;37163;55.556;39.108;2023-02-15T01:16:25;0.68;;;0.47;;
51124;SDS011;37163;55.556;39.108;2023-02-15T01:18:54;1.55;;;0.55;;
51124;SDS011;37163;55.556;39.108;2023-02-15T01:21:22;3.80;;;0.82;;
51124;SDS011;37163;55.556;39.108;2023-02-15T01:23:52;3.45;;;0.88;;
51124;SDS011;37163;55.556;39.108;2023-02-15T01:26:18;2.25;;;0.93;;
51124;SDS011;37163;55.556;39.108;2023-02-15T01:28:45;3.60;;;0.80;;
51124;SDS011;37163;55.556;39.108;2023-02-15T01:31:14;1.08;;;0.57;;
51124;SDS011;37163;55.556;39.108;2023-02-15T01:33:41;3.28;;;0.77;;
51124;SDS011;37163;55.556;39.108;2023-02-15T01:36:08;1.63;;;0.65;;
51124;SDS011;37163;55.556;39.108;2023-02-15T01:38:35;2.63;;;0.60;;
51124;SDS011;37163;55.556;39.108;2023-02-15T01:41:05;2.42;;;0.77;;
51124;SDS011;37163;55.556;39.108;2023-02-15T01:43:58;2.17;;;0.82;;
51124;SDS011;37163;55.556;39.108;2023-02-15T01:46:27;1.95;;;0.60;;
51124;SDS011;37163;55.556;39.108;2023-02-15T01:49:08;4.20;;;1.00;;
51124;SDS011;37163;55.556;39.108;2023-02-15T01:51:39;0.55;;;0.50;;
51124;SDS011;37163;55.556;39.108;2023-02-15T01:57:13;1.73;;;0.70;;
51124;SDS011;37163;55.556;39.108;2023-02-15T01:59:45;0.85;;;0.43;;
51124;SDS011;37163;55.556;39.108;2023-02-15T02:02:16;3.25;;;0.85;;
51124;SDS011;37163;55.556;39.108;2023-02-15T02:04:48;2.10;;;0.57;;
51124;SDS011;37163;55.556;39.108;2023-02-15T02:07:19;1.27;;;0.60;;
51124;SDS011;37163;55.556;39.108;2023-02-15T02:09:46;5.40;;;0.70;;
51124;SDS011;37163;55.556;39.108;2023-02-15T02:12:15;2.15;;;0.80;;
51124;SDS011;37163;55.556;39.108;2023-02-15T02:14:42;2.30;;;0.60;;
51124;SDS011;37163;55.556;39.108;2023-02-15T02:17:16;1.48;;;0.60;;
51124;SDS011;37163;55.556;39.108;2023-02-15T02:26:03;2.53;;;0.70;;
51124;SDS011;37163;55.556;39.108;2023-02-15T02:45:08;3.55;;;0.93;;
51124;SDS011;37163;55.556;39.108;2023-02-15T02:47:49;3.08;;;0.73;;
51124;SDS011;37163;55.556;39.108;2023-02-15T02:50:25;2.60;;;0.60;;
51124;SDS011;37163;55.556;39.108;2023-02-15T02:52:55;2.22;;;0.77;;
51124;SDS011;37163;55.556;39.108;2023-02-15T02:56:07;2.40;;;0.88;;
51124;SDS011;37163;55.556;39.108;2023-02-15T02:58:34;1.45;;;0.68;;
51124;SDS011;37163;55.556;39.108;2023-02-15T03:01:06;4.07;;;0.85;;
51124;SDS011;37163;55.556;39.108;2023-02-15T03:03:55;1.95;;;1.05;;
51124;SDS011;37163;55.556;39.108;2023-02-15T03:06:26;1.33;;;0.57;;
51124;SDS011;37163;55.556;39.108;2023-02-15T03:09:22;3.72;;;0.70;;
51124;SDS011;37163;55.556;39.108;2023-02-15T03:11:52;0.40;;;0.30;;
51124;SDS011;37163;55.556;39.108;2023-02-15T03:14:20;3.83;;;0.82;;
51124;SDS011;37163;55.556;39.108;2023-02-15T03:16:47;1.60;;;0.90;;
51124;SDS011;37163;55.556;39.108;2023-02-15T03:19:20;1.67;;;0.73;;
51124;SDS011;37163;55.556;39.108;2023-02-15T03:21:51;3.10;;;0.60;;
51124;SDS011;37163;55.556;39.108;2023-02-15T03:24:36;2.60;;;0.80;;
51124;SDS011;37163;55.556;39.108;2023-02-15T03:27:10;1.48;;;0.60;;
51124;SDS011;37163;55.556;39.108;2023-02-15T03:29:47;4.22;;;0.98;;
51124;SDS011;37163;55.556;39.108;2023-02-15T03:32:16;0.57;;;0.40;;
51124;SDS011;37163;55.556;39.108;2023-02-15T03:34:43;2.95;;;0.98;;
51124;SDS011;37163;55.556;39.108;2023-02-15T03:37:32;1.48;;;0.75;;
51124;SDS011;37163;55.556;39.108;2023-02-15T03:40:00;2.72;;;0.73;;
51124;SDS011;37163;55.556;39.108;2023-02-15T03:42:52;3.33;;;0.82;;
51124;SDS011;37163;55.556;39.108;2023-02-15T03:45:27;5.97;;;0.90;;
51124;SDS011;37163;55.556;39.108;2023-02-15T03:47:58;2.78;;;0.68;;
51124;SDS011;37163;55.556;39.108;2023-02-15T03:50:28;1.95;;;0.65;;
51124;SDS011;37163;55.556;39.108;2023-02-15T03:53:15;2.08;;;0.52;;
51124;SDS011;37163;55.556;39.108;2023-02-15T03:55:49;2.40;;;0.63;;
51124;SDS011;37163;55.556;39.108;2023-02-15T04:01:10;2.38;;;0.98;;
51124;SDS011;37163;55.556;39.108;2023-02-15T04:04:36;2.28;;;0.68;;
51124;SDS011;37163;55.556;39.108;2023-02-15T04:07:05;3.70;;;1.27;;
51124;SDS011;37163;55.556;39.108;2023-02-15T04:09:32;1.70;;;1.02;;
51124;SDS011;37163;55.556;39.108;2023-02-15T04:12:18;3.55;;;1.25;;
51124;SDS011;37163;55.556;39.108;2023-02-15T04:14:44;6.43;;;1.30;;
51124;SDS011;37163;55.556;39.108;2023-02-15T04:17:31;3.10;;;1.15;;
51124;SDS011;37163;55.556;39.108;2023-02-15T04:19:58;3.33;;;1.02;;
51124;SDS011;37163;55.556;39.108;2023-02-15T04:22:43;2.53;;;1.05;;
51124;SDS011;37163;55.556;39.108;2023-02-15T04:25:28;7.30;;;1.52;;
51124;SDS011;37163;55.556;39.108;2023-02-15T04:27:54;5.30;;;1.45;;
51124;SDS011;37163;55.556;39.108;2023-02-15T04:30:23;5.35;;;1.92;;
51124;SDS011;37163;55.556;39.108;2023-02-15T04:32:51;5.78;;;1.98;;
51124;SDS011;37163;55.556;39.108;2023-02-15T04:35:19;5.78;;;1.40;;
51124;SDS011;37163;55.556;39.108;2023-02-15T04:37:46;2.90;;;1.00;;
51124;SDS011;37163;55.556;39.108;2023-02-15T04:40:13;5.30;;;1.50;;
51124;SDS011;37163;55.556;39.108;2023-02-15T04:42:42;5.05;;;1.52;;
51124;SDS011;37163;55.556;39.108;2023-02-15T04:45:08;10.13;;;2.10;;
51124;SDS011;37163;55.556;39.108;2023-02-15T04:47:35;8.38;;;2.28;;
51124;SDS011;37163;55.556;39.108;2023-02-15T04:50:02;7.88;;;1.75;;
51124;SDS011;37163;55.556;39.108;2023-02-15T04:52:29;4.10;;;1.23;;
51124;SDS011;37163;55.556;39.108;2023-02-15T04:54:55;3.33;;;1.30;;
51124;SDS011;37163;55.556;39.108;2023-02-15T04:57:23;1.90;;;0.73;;
51124;SDS011;37163;55.556;39.108;2023-02-15T04:59:50;3.35;;;1.30;;
51124;SDS011;37163;55.556;39.108;2023-02-15T05:02:35;3.92;;;1.27;;
51124;SDS011;37163;55.556;39.108;2023-02-15T05:05:01;4.30;;;1.35;;
51124;SDS011;37163;55.556;39.108;2023-02-15T05:07:29;5.38;;;1.38;;
51124;SDS011;37163;55.556;39.108;2023-02-15T05:09:55;2.92;;;1.02;;
51124;SDS011;37163;55.556;39.108;2023-02-15T05:12:22;5.47;;;1.58;;
51124;SDS011;37163;55.556;39.108;2023-02-15T05:14:48;4.68;;;1.40;;
51124;SDS011;37163;55.556;39.108;2023-02-15T05:17:15;3.15;;;1.23;;
51124;SDS011;37163;55.556;39.108;2023-02-15T05:19:43;3.03;;;1.20;;
51124;SDS011;37163;55.556;39.108;2023-02-15T05:22:09;3.78;;;1.20;;
51124;SDS011;37163;55.556;39.108;2023-02-15T05:24:36;4.45;;;1.63;;
51124;SDS011;37163;55.556;39.108;2023-02-15T05:30:06;4.35;;;1.50;;
51124;SDS011;37163;55.556;39.108;2023-02-15T05:32:37;5.57;;;1.50;;
51124;SDS011;37163;55.556;39.108;2023-02-15T05:35:05;4.18;;;1.13;;
51124;SDS011;37163;55.556;39.108;2023-02-15T05:37:33;2.33;;;1.02;;
51124;SDS011;37163;55.556;39.108;2023-02-15T05:39:59;2.30;;;0.95;;
51124;SDS011;37163;55.556;39.108;2023-02-15T05:42:26;2.20;;;1.20;;
51124;SDS011;37163;55.556;39.108;2023-02-15T05:44:52;5.45;;;1.38;;
51124;SDS011;37163;55.556;39.108;2023-02-15T05:47:19;2.97;;;1.30;;
51124;SDS011;37163;55.556;39.108;2023-02-15T05:49:45;5.65;;;1.30;;
51124;SDS011;37163;55.556;39.108;2023-02-15T05:52:12;1.75;;;0.90;;
51124;SDS011;37163;55.556;39.108;2023-02-15T05:54:40;2.10;;;1.20;;
51124;SDS011;37163;55.556;39.108;2023-02-15T05:57:07;3.20;;;1.60;;
51124;SDS011;37163;55.556;39.108;2023-02-15T05:59:33;3.17;;;1.30;;
51124;SDS011;37163;55.556;39.108;2023-02-15T06:02:00;7.60;;;1.83;;
51124;SDS011;37163;55.556;39.108;2023-02-15T06:04:26;3.40;;;1.33;;
51124;SDS011;37163;55.556;39.108;2023-02-15T06:06:54;5.07;;;1.55;;
51124;SDS011;37163;55.556;39.108;2023-02-15T06:09:20;4.90;;;2.00;;
51124;SDS011;37163;55.556;39.108;2023-02-15T06:11:49;2.80;;;1.08;;
51124;SDS011;37163;55.556;39.108;2023-02-15T06:14:16;2.85;;;1.25;;
51124;SDS011;37163;55.556;39.108;2023-02-15T06:16:42;6.22;;;1.65;;
51124;SDS011;37163;55.556;39.108;2023-02-15T06:19:12;5.68;;;1.95;;
51124;SDS011;37163;55.556;39.108;2023-02-15T06:21:40;8.15;;;2.00;;
51124;SDS011;37163;55.556;39.108;2023-02-15T06:24:09;4.00;;;1.63;;
51124;SDS011;37163;55.556;39.108;2023-02-15T06:26:35;6.03;;;1.83;;
51124;SDS011;37163;55.556;39.108;2023-02-15T06:29:02;2.65;;;1.10;;
51124;SDS011;37163;55.556;39.108;2023-02-15T06:31:28;3.33;;;1.42;;
51124;SDS011;37163;55.556;39.108;2023-02-15T06:33:55;6.90;;;1.33;;
51124;SDS011;37163;55.556;39.108;2023-02-15T06:36:27;4.47;;;1.23;;
51124;SDS011;37163;55.556;39.108;2023-02-15T06:38:55;3.20;;;1.38;;
51124;SDS011;37163;55.556;39.108;2023-02-15T06:41:22;3.50;;;1.35;;
51124;SDS011;37163;55.556;39.108;2023-02-15T06:43:50;3.85;;;1.60;;
51124;SDS011;37163;55.556;39.108;2023-02-15T06:46:17;2.25;;;1.35;;
51124;SDS011;37163;55.556;39.108;2023-02-15T06:48:44;3.95;;;1.27;;
51124;SDS011;37163;55.556;39.108;2023-02-15T06:51:11;4.20;;;1.30;;
51124;SDS011;37163;55.556;39.108;2023-02-15T06:53:39;3.30;;;1.20;;
51124;SDS011;37163;55.556;39.108;2023-02-15T06:56:08;5.15;;;1.45;;
51124;SDS011;37163;55.556;39.108;2023-02-15T06:58:36;9.32;;;1.80;;
51124;SDS011;37163;55.556;39.108;2023-02-15T07:01:03;3.60;;;1.42;;
51124;SDS011;37163;55.556;39.108;2023-02-15T07:03:31;4.90;;;1.38;;
51124;SDS011;37163;55.556;39.108;2023-02-15T07:05:59;3.35;;;1.27;;
51124;SDS011;37163;55.556;39.108;2023-02-15T07:08:26;2.55;;;1.00;;
51124;SDS011;37163;55.556;39.108;2023-02-15T07:10:54;8.10;;;1.92;;
51124;SDS011;37163;55.556;39.108;2023-02-15T07:13:41;5.75;;;1.42;;
51124;SDS011;37163;55.556;39.108;2023-02-15T07:16:09;3.50;;;1.50;;
51124;SDS011;37163;55.556;39.108;2023-02-15T07:18:38;3.10;;;1.33;;
51124;SDS011;37163;55.556;39.108;2023-02-15T07:21:06;3.72;;;1.30;;
51124;SDS011;37163;55.556;39.108;2023-02-15T07:23:37;4.88;;;1.40;;
51124;SDS011;37163;55.556;39.108;2023-02-15T07:26:05;4.03;;;1.60;;
51124;SDS011;37163;55.556;39.108;2023-02-15T07:28:33;4.75;;;1.30;;
51124;SDS011;37163;55.556;39.108;2023-02-15T07:31:01;5.22;;;1.15;;
51124;SDS011;37163;55.556;39.108;2023-02-15T07:33:30;6.03;;;1.58;;
51124;SDS011;37163;55.556;39.108;2023-02-15T07:35:59;4.18;;;1.40;;
51124;SDS011;37163;55.556;39.108;2023-02-15T07:38:31;4.85;;;1.67;;
51124;SDS011;37163;55.556;39.108;2023-02-15T07:40:59;7.20;;;2.50;;
51124;SDS011;37163;55.556;39.108;2023-02-15T07:43:27;7.55;;;2.05;;
51124;SDS011;37163;55.556;39.108;2023-02-15T07:45:59;6.70;;;2.15;;
51124;SDS011;37163;55.556;39.108;2023-02-15T07:48:27;3.65;;;2.50;;
51124;SDS011;37163;55.556;39.108;2023-02-15T07:50:58;7.65;;;2.17;;
51124;SDS011;37163;55.556;39.108;2023-02-15T07:53:28;7.00;;;2.10;;
51124;SDS011;37163;55.556;39.108;2023-02-15T07:56:02;5.32;;;1.92;;
51124;SDS011;37163;55.556;39.108;2023-02-15T07:58:30;9.63;;;2.70;;
51124;SDS011;37163;55.556;39.108;2023-02-15T08:01:17;5.45;;;1.98;;
51124;SDS011;37163;55.556;39.108;2023-02-15T08:03:44;4.30;;;1.65;;
51124;SDS011;37163;55.556;39.108;2023-02-15T08:06:11;5.50;;;1.45;;
51124;SDS011;37163;55.556;39.108;2023-02-15T08:08:39;3.17;;;1.23;;
51124;SDS011;37163;55.556;39.108;2023-02-15T08:11:09;3.72;;;1.27;;
51124;SDS011;37163;55.556;39.108;2023-02-15T08:13:59;4.95;;;1.52;;
51124;SDS011;37163;55.556;39.108;2023-02-15T08:19:05;4.60;;;1.38;;
51124;SDS011;37163;55.556;39.108;2023-02-15T08:21:42;5.32;;;1.13;;
51124;SDS011;37163;55.556;39.108;2023-02-15T08:24:12;5.22;;;1.67;;
51124;SDS011;37163;55.556;39.108;2023-02-15T08:26:40;3.45;;;1.02;;
51124;SDS011;37163;55.556;39.108;2023-02-15T08:29:08;3.08;;;1.45;;
51124;SDS011;37163;55.556;39.108;2023-02-15T08:31:35;2.78;;;1.48;;
51124;SDS011;37163;55.556;39.108;2023-02-15T08:34:03;3.67;;;1.23;;
51124;SDS011;37163;55.556;39.108;2023-02-15T08:36:31;2.15;;;0.90;;
51124;SDS011;37163;55.556;39.108;2023-02-15T08:38:59;2.05;;;1.05;;
51124;SDS011;37163;55.556;39.108;2023-02-15T08:41:29;3.22;;;1.05;;
51124;SDS011;37163;55.556;39.108;2023-02-15T08:43:57;1.23;;;0.77;;
51124;SDS011;37163;55.556;39.108;2023-02-15T08:46:26;2.58;;;1.08;;
51124;SDS011;37163;55.556;39.108;2023-02-15T08:48:55;3.60;;;0.93;;
51124;SDS011;37163;55.556;39.108;2023-02-15T08:51:23;2.28;;;0.85;;
51124;SDS011;37163;55.556;39.108;2023-02-15T08:53:57;1.30;;;0.75;;
51124;SDS011;37163;55.556;39.108;2023-02-15T08:56:27;2.05;;;1.17;;
51124;SDS011;37163;55.556;39.108;2023-02-15T08:58:55;3.33;;;1.13;;
51124;SDS011;37163;55.556;39.108;2023-02-15T09:01:24;1.17;;;0.52;;
51124;SDS011;37163;55.556;39.108;2023-02-15T09:03:53;3.72;;;0.80;;
51124;SDS011;37163;55.556;39.108;2023-02-15T09:06:22;2.10;;;1.08;;
51124;SDS011;37163;55.556;39.108;2023-02-15T09:08:49;3.45;;;0.98;;
51124;SDS011;37163;55.556;39.108;2023-02-15T09:11:22;1.58;;;0.45;;
51124;SDS011;37163;55.556;39.108;2023-02-15T09:13:56;2.40;;;0.75;;
51124;SDS011;37163;55.556;39.108;2023-02-15T09:16:25;4.18;;;0.77;;
51124;SDS011;37163;55.556;39.108;2023-02-15T09:18:54;1.42;;;0.50;;
51124;SDS011;37163;55.556;39.108;2023-02-15T09:21:21;1.35;;;0.52;;
51124;SDS011;37163;55.556;39.108;2023-02-15T09:23:50;1.85;;;0.70;;
51124;SDS011;37163;55.556;39.108;2023-02-15T09:26:19;1.50;;;0.68;;
51124;SDS011;37163;55.556;39.108;2023-02-15T09:28:46;2.22;;;0.57;;
51124;SDS011;37163;55.556;39.108;2023-02-15T09:31:16;1.95;;;0.57;;
51124;SDS011;37163;55.556;39.108;2023-02-15T09:33:44;1.95;;;0.70;;
51124;SDS011;37163;55.556;39.108;2023-02-15T09:36:18;0.95;;;0.40;;
51124;SDS011;37163;55.556;39.108;2023-02-15T09:38:57;0.75;;;0.65;;
51124;SDS011;37163;55.556;39.108;2023-02-15T09:52:57;1.90;;;0.70;;
51124;SDS011;37163;55.556;39.108;2023-02-15T09:55:36;0.60;;;0.40;;
51124;SDS011;37163;55.556;39.108;2023-02-15T10:03:31;3.80;;;1.33;;
51124;SDS011;37163;55.556;39.108;2023-02-15T10:06:09;0.95;;;0.70;;
51124;SDS011;37163;55.556;39.108;2023-02-15T10:11:36;1.60;;;0.80;;
51124;SDS011;37163;55.556;39.108;2023-02-15T10:17:11;0.65;;;0.60;;
51124;SDS011;37163;55.556;39.108;2023-02-15T10:20:07;0.65;;;0.40;;
51124;SDS011;37163;55.556;39.108;2023-02-15T10:26:24;1.30;;;0.40;;
51124;SDS011;37163;55.556;39.108;2023-02-15T10:28:50;0.65;;;0.45;;
51124;SDS011;37163;55.556;39.108;2023-02-15T10:34:28;0.90;;;0.45;;
51124;SDS011;37163;55.556;39.108;2023-02-15T10:43:04;0.30;;;0.28;;
51124;SDS011;37163;55.556;39.108;2023-02-15T10:57:21;1.98;;;0.85;;
51124;SDS011;37163;55.556;39.108;2023-02-15T10:59:53;1.63;;;0.85;;
51124;SDS011;37163;55.556;39.108;2023-02-15T11:07:43;2.13;;;0.93;;
51124;SDS011;37163;55.556;39.108;2023-02-15T11:10:15;1.77;;;0.75;;
51124;SDS011;37163;55.556;39.108;2023-02-15T11:12:48;2.22;;;0.95;;
51124;SDS011;37163;55.556;39.108;2023-02-15T11:15:26;1.25;;;0.70;;
51124;SDS011;37163;55.556;39.108;2023-02-15T11:18:37;1.83;;;0.90;;
51124;SDS011;37163;55.556;39.108;2023-02-15T11:23:43;1.08;;;0.47;;
51124;SDS011;37163;55.556;39.108;2023-02-15T11:26:15;1.65;;;0.75;;
51124;SDS011;37163;55.556;39.108;2023-02-15T11:28:45;3.25;;;0.77;;
51124;SDS011;37163;55.556;39.108;2023-02-15T11:31:24;1.95;;;0.50;;
51124;SDS011;37163;55.556;39.108;2023-02-15T11:33:57;1.70;;;0.88;;
51124;SDS011;37163;55.556;39.108;2023-02-15T11:36:27;1.42;;;0.70;;
51124;SDS011;37163;55.556;39.108;2023-02-15T11:39:00;5.60;;;1.50;;
51124;SDS011;37163;55.556;39.108;2023-02-15T11:41:32;5.30;;;2.03;;
51124;SDS011;37163;55.556;39.108;2023-02-15T11:44:10;3.47;;;1.50;;
51124;SDS011;37163;55.556;39.108;2023-02-15T11:46:41;1.70;;;1.10;;
51124;SDS011;37163;55.556;39.108;2023-02-15T11:52:01;2.80;;;1.25;;
51124;SDS011;37163;55.556;39.108;2023-02-15T11:54:32;1.95;;;0.95;;
51124;SDS011;37163;55.556;39.108;2023-02-15T11:57:11;3.15;;;1.20;;
51124;SDS011;37163;55.556;39.108;2023-02-15T12:00:14;3.13;;;0.80;;
51124;SDS011;37163;55.556;39.108;2023-02-15T12:02:44;3.67;;;1.02;;
51124;SDS011;37163;55.556;39.108;2023-02-15T12:05:13;8.30;;;1.67;;
51124;SDS011;37163;55.556;39.108;2023-02-15T12:07:43;4.90;;;1.85;;
51124;SDS011;37163;55.556;39.108;2023-02-15T12:10:22;3.95;;;1.40;;
51124;SDS011;37163;55.556;39.108;2023-02-15T12:13:33;3.63;;;1.52;;
51124;SDS011;37163;55.556;39.108;2023-02-15T12:15:42;4.38;;;1.25;;
51124;SDS011;37163;55.556;39.108;2023-02-15T12:18:17;1.92;;;0.98;;
51124;SDS011;37163;55.556;39.108;2023-02-15T12:20:59;2.78;;;1.35;;
51124;SDS011;37163;55.556;39.108;2023-02-15T12:23:27;4.32;;;1.80;;
51124;SDS011;37163;55.556;39.108;2023-02-15T12:25:55;1.75;;;1.00;;
51124;SDS011;37163;55.556;39.108;2023-02-15T12:30:59;1.08;;;0.60;;
51124;SDS011;37163;55.556;39.108;2023-02-15T12:33:40;4.10;;;0.63;;
51124;SDS011;37163;55.556;39.108;2023-02-15T12:39:01;3.70;;;0.90;;
51124;SDS011;37163;55.556;39.108;2023-02-15T12:41:43;5.03;;;1.38;;
51124;SDS011;37163;55.556;39.108;2023-02-15T12:44:22;1.42;;;0.90;;
51124;SDS011;37163;55.556;39.108;2023-02-15T12:47:04;13.23;;;6.63;;
51124;SDS011;37163;55.556;39.108;2023-02-15T12:49:38;16.52;;;6.65;;
51124;SDS011;37163;55.556;39.108;2023-02-15T12:54:43;4.82;;;2.53;;
51124;SDS011;37163;55.556;39.108;2023-02-15T12:59:58;1.23;;;0.50;;
51124;SDS011;37163;55.556;39.108;2023-02-15T13:10:33;6.85;;;2.90;;
51124;SDS011;37163;55.556;39.108;2023-02-15T13:13:02;2.20;;;1.17;;
51124;SDS011;37163;55.556;39.108;2023-02-15T13:15:39;1.52;;;1.05;;
51124;SDS011;37163;55.556;39.108;2023-02-15T13:18:10;3.00;;;1.52;;
51124;SDS011;37163;55.556;39.108;2023-02-15T13:20:41;1.38;;;0.68;;
51124;SDS011;37163;55.556;39.108;2023-02-15T13:23:20;1.02;;;0.50;;
51124;SDS011;37163;55.556;39.108;2023-02-15T13:25:53;1.88;;;0.90;;
51124;SDS011;37163;55.556;39.108;2023-02-15T13:28:26;1.60;;;0.90;;
51124;SDS011;37163;55.556;39.108;2023-02-15T13:31:03;2.38;;;0.88;;
51124;SDS011;37163;55.556;39.108;2023-02-15T13:33:33;2.20;;;0.73;;
51124;SDS011;37163;55.556;39.108;2023-02-15T13:36:05;2.00;;;0.68;;
51124;SDS011;37163;55.556;39.108;2023-02-15T13:38:50;1.63;;;0.68;;
51124;SDS011;37163;55.556;39.108;2023-02-15T13:41:30;2.65;;;1.00;;
51124;SDS011;37163;55.556;39.108;2023-02-15T13:50:03;2.22;;;0.80;;
51124;SDS011;37163;55.556;39.108;2023-02-15T13:52:58;1.95;;;0.80;;
51124;SDS011;37163;55.556;39.108;2023-02-15T13:55:50;7.32;;;2.08;;
51124;SDS011;37163;55.556;39.108;2023-02-15T13:58:23;6.68;;;2.67;;
51124;SDS011;37163;55.556;39.108;2023-02-15T14:01:10;7.55;;;3.50;;
51124;SDS011;37163;55.556;39.108;2023-02-15T14:06:17;5.88;;;1.70;;
51124;SDS011;37163;55.556;39.108;2023-02-15T14:09:09;4.28;;;1.80;;
51124;SDS011;37163;55.556;39.108;2023-02-15T14:29:24;1.42;;;0.82;;
51124;SDS011;37163;55.556;39.108;2023-02-15T14:31:59;2.08;;;1.13;;
51124;SDS011;37163;55.556;39.108;2023-02-15T14:34:37;8.20;;;2.15;;
51124;SDS011;37163;55.556;39.108;2023-02-15T14:37:10;8.07;;;2.22;;
51124;SDS011;37163;55.556;39.108;2023-02-15T14:45:55;4.38;;;1.40;;
51124;SDS011;37163;55.556;39.108;2023-02-15T14:56:44;2.88;;;1.23;;
51124;SDS011;37163;55.556;39.108;2023-02-15T14:59:20;1.60;;;0.70;;
51124;SDS011;37163;55.556;39.108;2023-02-15T15:01:53;0.80;;;0.52;;
51124;SDS011;37163;55.556;39.108;2023-02-15T15:04:25;1.08;;;0.52;;
51124;SDS011;37163;55.556;39.108;2023-02-15T15:07:03;1.30;;;0.57;;
51124;SDS011;37163;55.556;39.108;2023-02-15T15:09:59;0.77;;;0.70;;
51124;SDS011;37163;55.556;39.108;2023-02-15T15:12:42;1.77;;;0.70;;
51124;SDS011;37163;55.556;39.108;2023-02-15T15:17:55;3.92;;;1.45;;
51124;SDS011;37163;55.556;39.108;2023-02-15T15:25:44;2.42;;;1.35;;
51124;SDS011;37163;55.556;39.108;2023-02-15T15:36:54;0.82;;;0.57;;
51124;SDS011;37163;55.556;39.108;2023-02-15T15:50:34;1.38;;;0.98;;
51124;SDS011;37163;55.556;39.108;2023-02-15T15:53:06;1.13;;;0.90;;
51124;SDS011;37163;55.556;39.108;2023-02-15T15:55:33;1.27;;;0.80;;
51124;SDS011;37163;55.556;39.108;2023-02-15T15:58:01;2.05;;;0.85;;
51124;SDS011;37163;55.556;39.108;2023-02-15T16:02:58;3.00;;;1.02;;
51124;SDS011;37163;55.556;39.108;2023-02-15T16:05:24;2.75;;;1.33;;
51124;SDS011;37163;55.556;39.108;2023-02-15T16:07:51;2.35;;;0.90;;
51124;SDS011;37163;55.556;39.108;2023-02-15T16:10:22;2.25;;;1.02;;
51124;SDS011;37163;55.556;39.108;2023-02-15T16:12:50;2.58;;;0.90;;
51124;SDS011;37163;55.556;39.108;2023-02-15T16:15:30;3.33;;;1.15;;
51124;SDS011;37163;55.556;39.108;2023-02-15T16:18:10;2.55;;;0.70;;
51124;SDS011;37163;55.556;39.108;2023-02-15T16:20:42;3.17;;;1.10;;
51124;SDS011;37163;55.556;39.108;2023-02-15T16:28:26;2.75;;;1.10;;
51124;SDS011;37163;55.556;39.108;2023-02-15T16:33:39;2.55;;;1.40;;
51124;SDS011;37163;55.556;39.108;2023-02-15T16:36:10;2.95;;;1.20;;
51124;SDS011;37163;55.556;39.108;2023-02-15T16:41:30;1.77;;;0.98;;
51124;SDS011;37163;55.556;39.108;2023-02-15T16:43:57;1.35;;;0.77;;
51124;SDS011;37163;55.556;39.108;2023-02-15T16:46:27;2.55;;;1.05;;
51124;SDS011;37163;55.556;39.108;2023-02-15T16:48:56;2.40;;;1.05;;
51124;SDS011;37163;55.556;39.108;2023-02-15T16:51:26;2.45;;;0.95;;
51124;SDS011;37163;55.556;39.108;2023-02-15T16:53:56;3.58;;;1.00;;
51124;SDS011;37163;55.556;39.108;2023-02-15T16:56:27;0.80;;;0.80;;
51124;SDS011;37163;55.556;39.108;2023-02-15T16:59:01;1.30;;;0.85;;
51124;SDS011;37163;55.556;39.108;2023-02-15T17:01:28;3.00;;;1.27;;
51124;SDS011;37163;55.556;39.108;2023-02-15T17:04:13;3.63;;;1.83;;
51124;SDS011;37163;55.556;39.108;2023-02-15T17:07:04;2.17;;;1.00;;
51124;SDS011;37163;55.556;39.108;2023-02-15T17:10:01;2.53;;;1.25;;
51124;SDS011;37163;55.556;39.108;2023-02-15T17:12:46;4.43;;;1.90;;
51124;SDS011;37163;55.556;39.108;2023-02-15T17:15:33;5.40;;;2.20;;
51124;SDS011;37163;55.556;39.108;2023-02-15T17:18:18;6.82;;;2.58;;
51124;SDS011;37163;55.556;39.108;2023-02-15T17:20:50;4.20;;;1.67;;
51124;SDS011;37163;55.556;39.108;2023-02-15T17:23:19;4.35;;;1.67;;
51124;SDS011;37163;55.556;39.108;2023-02-15T17:26:00;3.90;;;1.67;;
51124;SDS011;37163;55.556;39.108;2023-02-15T17:28:46;6.72;;;2.97;;
51124;SDS011;37163;55.556;39.108;2023-02-15T17:31:16;3.38;;;1.63;;
51124;SDS011;37163;55.556;39.108;2023-02-15T17:33:43;1.92;;;0.98;;
51124;SDS011;37163;55.556;39.108;2023-02-15T17:36:17;2.50;;;1.20;;
51124;SDS011;37163;55.556;39.108;2023-02-15T17:39:29;3.58;;;1.42;;
51124;SDS011;37163;55.556;39.108;2023-02-15T17:41:47;2.35;;;1.20;;
51124;SDS011;37163;55.556;39.108;2023-02-15T17:44:18;2.97;;;1.23;;
51124;SDS011;37163;55.556;39.108;2023-02-15T17:46:44;4.72;;;1.90;;
51124;SDS011;37163;55.556;39.108;2023-02-15T17:49:14;2.42;;;1.25;;
51124;SDS011;37163;55.556;39.108;2023-02-15T17:51:48;1.63;;;0.85;;
51124;SDS011;37163;55.556;39.108;2023-02-15T17:54:14;4.10;;;1.60;;
51124;SDS011;37163;55.556;39.108;2023-02-15T17:59:30;2.63;;;0.98;;
51124;SDS011;37163;55.556;39.108;2023-02-15T18:01:56;4.05;;;1.33;;
51124;SDS011;37163;55.556;39.108;2023-02-15T18:07:27;1.60;;;1.05;;
51124;SDS011;37163;55.556;39.108;2023-02-15T18:10:17;2.30;;;0.95;;
51124;SDS011;37163;55.556;39.108;2023-02-15T18:13:02;2.05;;;0.95;;
51124;SDS011;37163;55.556;39.108;2023-02-15T18:15:29;2.78;;;1.38;;
51124;SDS011;37163;55.556;39.108;2023-02-15T18:17:56;4.97;;;1.50;;
51124;SDS011;37163;55.556;39.108;2023-02-15T18:20:23;3.78;;;1.13;;
51124;SDS011;37163;55.556;39.108;2023-02-15T18:22:53;3.22;;;1.10;;